sensor_id;sensor_type;location;lat;lon;timestamp;P1;durP1;ratioP1;P2;durP2;ratioP2
5787;SDS011;2920;48.158;12.254;2023-12-20T00:02:22;2.30;;;1.42;;
5787;SDS011;2920;48.158;12.254;2023-12-20T00:04:47;2.10;;;1.60;;
5787;SDS011;2920;48.158;12.254;2023-12-20T00:07:12;2.67;;;1.77;;
5787;SDS011;2920;48.158;12.254;2023-12-20T00:09:38;3.45;;;1.80;;
5787;SDS011;2920;48.158;12.254;2023-12-20T00:12:03;2.35;;;1.45;;
5787;SDS011;2920;48.158;12.254;2023-12-20T00:14:28;2.00;;;1.20;;
5787;SDS011;2920;48.158;12.254;2023-12-20T00:16:54;3.72;;;1.70;;
5787;SDS011;2920;48.158;12.254;2023-12-20T00:19:19;3.40;;;1.83;;
5787;SDS011;2920;48.158;12.254;2023-12-20T00:21:45;2.75;;;1.42;;
5787;SDS011;2920;48.158;12.254;2023-12-20T00:24:10;4.47;;;2.03;;
5787;SDS011;2920;48.158;12.254;2023-12-20T00:26:35;1.98;;;1.23;;
5787;SDS011;2920;48.158;12.254;2023-12-20T00:29:00;4.18;;;1.80;;
5787;SDS011;2920;48.158;12.254;2023-12-20T00:31:26;1.88;;;1.35;;
5787;SDS011;2920;48.158;12.254;2023-12-20T00:33:51;2.00;;;1.60;;
5787;SDS011;2920;48.158;12.254;2023-12-20T00:36:17;3.90;;;1.80;;
5787;SDS011;2920;48.158;12.254;2023-12-20T00:38:42;5.50;;;2.10;;
5787;SDS011;2920;48.158;12.254;2023-12-20T00:41:07;3.10;;;2.20;;
5787;SDS011;2920;48.158;12.254;2023-12-20T00:43:33;4.72;;;2.08;;
5787;SDS011;2920;48.158;12.254;2023-12-20T00:45:58;4.60;;;2.47;;
5787;SDS011;2920;48.158;12.254;2023-12-20T00:48:25;3.58;;;2.10;;
5787;SDS011;2920;48.158;12.254;2023-12-20T00:50:52;4.28;;;2.10;;
5787;SDS011;2920;48.158;12.254;2023-12-20T00:53:17;3.78;;;2.53;;
5787;SDS011;2920;48.158;12.254;2023-12-20T00:55:42;2.85;;;1.80;;
5787;SDS011;2920;48.158;12.254;2023-12-20T00:58:09;4.43;;;2.70;;
5787;SDS011;2920;48.158;12.254;2023-12-20T01:00:34;3.47;;;2.38;;
5787;SDS011;2920;48.158;12.254;2023-12-20T01:02:59;5.05;;;2.20;;
5787;SDS011;2920;48.158;12.254;2023-12-20T01:05:25;5.20;;;1.90;;
5787;SDS011;2920;48.158;12.254;2023-12-20T01:07:50;4.22;;;2.65;;
5787;SDS011;2920;48.158;12.254;2023-12-20T01:10:15;3.70;;;2.40;;
5787;SDS011;2920;48.158;12.254;2023-12-20T01:12:41;4.65;;;2.65;;
5787;SDS011;2920;48.158;12.254;2023-12-20T01:15:06;6.53;;;2.50;;
5787;SDS011;2920;48.158;12.254;2023-12-20T01:17:31;7.28;;;2.50;;
5787;SDS011;2920;48.158;12.254;2023-12-20T01:19:57;4.07;;;2.70;;
5787;SDS011;2920;48.158;12.254;2023-12-20T01:22:23;4.78;;;2.40;;
5787;SDS011;2920;48.158;12.254;2023-12-20T01:24:48;3.78;;;2.47;;
5787;SDS011;2920;48.158;12.254;2023-12-20T01:27:13;3.95;;;2.03;;
5787;SDS011;2920;48.158;12.254;2023-12-20T01:29:38;5.43;;;2.70;;
5787;SDS011;2920;48.158;12.254;2023-12-20T01:32:04;4.82;;;2.83;;
5787;SDS011;2920;48.158;12.254;2023-12-20T01:34:30;4.55;;;2.53;;
5787;SDS011;2920;48.158;12.254;2023-12-20T01:36:55;4.15;;;2.60;;
5787;SDS011;2920;48.158;12.254;2023-12-20T01:39:21;6.88;;;2.35;;
5787;SDS011;2920;48.158;12.254;2023-12-20T01:41:46;3.35;;;2.10;;
5787;SDS011;2920;48.158;12.254;2023-12-20T01:44:11;4.55;;;2.63;;
5787;SDS011;2920;48.158;12.254;2023-12-20T01:46:36;5.22;;;3.00;;
5787;SDS011;2920;48.158;12.254;2023-12-20T01:49:02;5.15;;;2.90;;
5787;SDS011;2920;48.158;12.254;2023-12-20T01:51:27;3.88;;;2.33;;
5787;SDS011;2920;48.158;12.254;2023-12-20T01:53:53;3.95;;;2.50;;
5787;SDS011;2920;48.158;12.254;2023-12-20T01:56:23;4.50;;;2.70;;
5787;SDS011;2920;48.158;12.254;2023-12-20T01:58:49;3.67;;;2.72;;
5787;SDS011;2920;48.158;12.254;2023-12-20T02:01:14;7.15;;;2.53;;
5787;SDS011;2920;48.158;12.254;2023-12-20T02:03:40;6.55;;;2.58;;
5787;SDS011;2920;48.158;12.254;2023-12-20T02:06:07;4.40;;;2.72;;
5787;SDS011;2920;48.158;12.254;2023-12-20T02:08:32;5.03;;;2.90;;
5787;SDS011;2920;48.158;12.254;2023-12-20T02:10:58;4.47;;;2.67;;
5787;SDS011;2920;48.158;12.254;2023-12-20T02:13:24;5.93;;;2.70;;
5787;SDS011;2920;48.158;12.254;2023-12-20T02:15:50;5.25;;;2.58;;
5787;SDS011;2920;48.158;12.254;2023-12-20T02:18:15;3.97;;;2.92;;
5787;SDS011;2920;48.158;12.254;2023-12-20T02:20:41;4.57;;;2.38;;
5787;SDS011;2920;48.158;12.254;2023-12-20T02:23:07;6.93;;;3.30;;
5787;SDS011;2920;48.158;12.254;2023-12-20T02:25:32;4.68;;;2.72;;
5787;SDS011;2920;48.158;12.254;2023-12-20T02:27:57;4.35;;;2.53;;
5787;SDS011;2920;48.158;12.254;2023-12-20T02:30:23;4.20;;;2.40;;
5787;SDS011;2920;48.158;12.254;2023-12-20T02:32:49;3.95;;;2.60;;
5787;SDS011;2920;48.158;12.254;2023-12-20T02:35:14;4.60;;;2.28;;
5787;SDS011;2920;48.158;12.254;2023-12-20T02:37:40;7.28;;;2.65;;
5787;SDS011;2920;48.158;12.254;2023-12-20T02:40:05;5.07;;;2.60;;
5787;SDS011;2920;48.158;12.254;2023-12-20T02:42:31;6.05;;;2.80;;
5787;SDS011;2920;48.158;12.254;2023-12-20T02:44:57;4.57;;;2.42;;
5787;SDS011;2920;48.158;12.254;2023-12-20T02:47:22;3.58;;;2.58;;
5787;SDS011;2920;48.158;12.254;2023-12-20T02:49:47;3.28;;;2.40;;
5787;SDS011;2920;48.158;12.254;2023-12-20T02:52:13;3.30;;;2.60;;
5787;SDS011;2920;48.158;12.254;2023-12-20T02:54:38;3.63;;;2.38;;
5787;SDS011;2920;48.158;12.254;2023-12-20T02:57:04;3.58;;;2.15;;
5787;SDS011;2920;48.158;12.254;2023-12-20T02:59:29;4.63;;;2.40;;
5787;SDS011;2920;48.158;12.254;2023-12-20T03:01:54;4.78;;;2.88;;
5787;SDS011;2920;48.158;12.254;2023-12-20T03:04:19;4.63;;;2.30;;
5787;SDS011;2920;48.158;12.254;2023-12-20T03:06:45;3.85;;;2.33;;
5787;SDS011;2920;48.158;12.254;2023-12-20T03:09:10;5.00;;;2.83;;
5787;SDS011;2920;48.158;12.254;2023-12-20T03:11:35;5.82;;;2.55;;
5787;SDS011;2920;48.158;12.254;2023-12-20T03:14:01;6.30;;;2.70;;
5787;SDS011;2920;48.158;12.254;2023-12-20T03:16:26;5.05;;;2.67;;
5787;SDS011;2920;48.158;12.254;2023-12-20T03:18:51;4.80;;;2.53;;
5787;SDS011;2920;48.158;12.254;2023-12-20T03:21:17;4.65;;;2.50;;
5787;SDS011;2920;48.158;12.254;2023-12-20T03:23:42;4.68;;;2.40;;
5787;SDS011;2920;48.158;12.254;2023-12-20T03:26:08;4.63;;;2.67;;
5787;SDS011;2920;48.158;12.254;2023-12-20T03:28:33;3.60;;;2.33;;
5787;SDS011;2920;48.158;12.254;2023-12-20T03:30:59;3.88;;;2.33;;
5787;SDS011;2920;48.158;12.254;2023-12-20T03:33:24;6.10;;;2.95;;
5787;SDS011;2920;48.158;12.254;2023-12-20T03:35:50;5.15;;;2.85;;
5787;SDS011;2920;48.158;12.254;2023-12-20T03:38:15;4.90;;;2.72;;
5787;SDS011;2920;48.158;12.254;2023-12-20T03:40:40;4.47;;;2.63;;
5787;SDS011;2920;48.158;12.254;2023-12-20T03:43:06;3.97;;;2.50;;
5787;SDS011;2920;48.158;12.254;2023-12-20T03:45:31;3.33;;;2.40;;
5787;SDS011;2920;48.158;12.254;2023-12-20T03:47:56;5.60;;;2.58;;
5787;SDS011;2920;48.158;12.254;2023-12-20T03:50:25;6.80;;;2.30;;
5787;SDS011;2920;48.158;12.254;2023-12-20T03:52:50;4.60;;;2.35;;
5787;SDS011;2920;48.158;12.254;2023-12-20T03:55:16;4.45;;;2.70;;
5787;SDS011;2920;48.158;12.254;2023-12-20T03:57:41;3.08;;;2.17;;
5787;SDS011;2920;48.158;12.254;2023-12-20T04:00:07;3.33;;;2.10;;
5787;SDS011;2920;48.158;12.254;2023-12-20T04:02:35;5.60;;;2.17;;
5787;SDS011;2920;48.158;12.254;2023-12-20T04:05:04;4.88;;;2.67;;
5787;SDS011;2920;48.158;12.254;2023-12-20T04:07:30;3.83;;;2.08;;
5787;SDS011;2920;48.158;12.254;2023-12-20T04:09:55;3.22;;;2.13;;
5787;SDS011;2920;48.158;12.254;2023-12-20T04:12:21;4.90;;;2.47;;
5787;SDS011;2920;48.158;12.254;2023-12-20T04:14:46;4.22;;;2.47;;
5787;SDS011;2920;48.158;12.254;2023-12-20T04:17:11;2.80;;;1.88;;
5787;SDS011;2920;48.158;12.254;2023-12-20T04:19:37;2.80;;;2.00;;
5787;SDS011;2920;48.158;12.254;2023-12-20T04:22:02;4.20;;;2.58;;
5787;SDS011;2920;48.158;12.254;2023-12-20T04:24:27;3.92;;;2.40;;
5787;SDS011;2920;48.158;12.254;2023-12-20T04:26:52;5.32;;;3.38;;
5787;SDS011;2920;48.158;12.254;2023-12-20T04:29:18;5.32;;;2.25;;
5787;SDS011;2920;48.158;12.254;2023-12-20T04:31:43;5.10;;;2.28;;
5787;SDS011;2920;48.158;12.254;2023-12-20T04:34:09;4.45;;;2.40;;
5787;SDS011;2920;48.158;12.254;2023-12-20T04:36:34;4.22;;;2.40;;
5787;SDS011;2920;48.158;12.254;2023-12-20T04:38:59;3.42;;;1.88;;
5787;SDS011;2920;48.158;12.254;2023-12-20T04:41:24;2.85;;;1.60;;
5787;SDS011;2920;48.158;12.254;2023-12-20T04:43:50;2.33;;;1.83;;
5787;SDS011;2920;48.158;12.254;2023-12-20T04:46:15;1.73;;;1.35;;
5787;SDS011;2920;48.158;12.254;2023-12-20T04:48:40;2.25;;;1.30;;
5787;SDS011;2920;48.158;12.254;2023-12-20T04:51:06;2.85;;;1.70;;
5787;SDS011;2920;48.158;12.254;2023-12-20T04:53:31;3.60;;;1.27;;
5787;SDS011;2920;48.158;12.254;2023-12-20T04:55:56;2.25;;;1.30;;
5787;SDS011;2920;48.158;12.254;2023-12-20T04:58:22;1.90;;;1.10;;
5787;SDS011;2920;48.158;12.254;2023-12-20T05:00:47;2.25;;;1.38;;
5787;SDS011;2920;48.158;12.254;2023-12-20T05:03:13;4.45;;;1.42;;
5787;SDS011;2920;48.158;12.254;2023-12-20T05:05:38;30.90;;;13.77;;
5787;SDS011;2920;48.158;12.254;2023-12-20T05:08:04;14.75;;;7.82;;
5787;SDS011;2920;48.158;12.254;2023-12-20T05:10:29;6.20;;;2.85;;
5787;SDS011;2920;48.158;12.254;2023-12-20T05:12:55;9.85;;;6.47;;
5787;SDS011;2920;48.158;12.254;2023-12-20T05:15:20;6.78;;;3.05;;
5787;SDS011;2920;48.158;12.254;2023-12-20T05:17:45;5.05;;;2.42;;
5787;SDS011;2920;48.158;12.254;2023-12-20T05:20:11;7.38;;;3.20;;
5787;SDS011;2920;48.158;12.254;2023-12-20T05:22:36;2.85;;;1.92;;
5787;SDS011;2920;48.158;12.254;2023-12-20T05:25:01;6.07;;;2.97;;
5787;SDS011;2920;48.158;12.254;2023-12-20T05:27:27;7.78;;;4.47;;
5787;SDS011;2920;48.158;12.254;2023-12-20T05:29:52;5.15;;;3.00;;
5787;SDS011;2920;48.158;12.254;2023-12-20T05:32:17;2.25;;;1.58;;
5787;SDS011;2920;48.158;12.254;2023-12-20T05:34:43;1.80;;;1.38;;
5787;SDS011;2920;48.158;12.254;2023-12-20T05:37:08;3.67;;;1.60;;
5787;SDS011;2920;48.158;12.254;2023-12-20T05:39:33;1.08;;;0.90;;
5787;SDS011;2920;48.158;12.254;2023-12-20T05:41:58;2.88;;;1.15;;
5787;SDS011;2920;48.158;12.254;2023-12-20T05:44:24;1.88;;;0.75;;
5787;SDS011;2920;48.158;12.254;2023-12-20T05:46:49;1.08;;;0.90;;
5787;SDS011;2920;48.158;12.254;2023-12-20T05:49:14;1.75;;;1.30;;
5787;SDS011;2920;48.158;12.254;2023-12-20T05:51:40;1.77;;;1.20;;
5787;SDS011;2920;48.158;12.254;2023-12-20T05:54:05;1.52;;;1.20;;
5787;SDS011;2920;48.158;12.254;2023-12-20T05:56:30;1.75;;;1.27;;
5787;SDS011;2920;48.158;12.254;2023-12-20T05:58:56;1.95;;;1.35;;
5787;SDS011;2920;48.158;12.254;2023-12-20T06:01:21;2.22;;;1.10;;
5787;SDS011;2920;48.158;12.254;2023-12-20T06:03:46;1.38;;;1.00;;
5787;SDS011;2920;48.158;12.254;2023-12-20T06:06:12;2.00;;;1.27;;
5787;SDS011;2920;48.158;12.254;2023-12-20T06:08:40;1.35;;;1.17;;
5787;SDS011;2920;48.158;12.254;2023-12-20T06:11:05;1.23;;;0.98;;
5787;SDS011;2920;48.158;12.254;2023-12-20T06:13:31;1.70;;;1.15;;
5787;SDS011;2920;48.158;12.254;2023-12-20T06:15:56;2.42;;;1.48;;
5787;SDS011;2920;48.158;12.254;2023-12-20T06:18:22;1.77;;;1.30;;
5787;SDS011;2920;48.158;12.254;2023-12-20T06:20:47;1.42;;;1.25;;
5787;SDS011;2920;48.158;12.254;2023-12-20T06:23:12;2.60;;;1.60;;
5787;SDS011;2920;48.158;12.254;2023-12-20T06:25:38;4.57;;;1.73;;
5787;SDS011;2920;48.158;12.254;2023-12-20T06:28:03;2.90;;;1.45;;
5787;SDS011;2920;48.158;12.254;2023-12-20T06:30:29;2.33;;;1.60;;
5787;SDS011;2920;48.158;12.254;2023-12-20T06:32:55;4.63;;;2.10;;
5787;SDS011;2920;48.158;12.254;2023-12-20T06:35:22;2.25;;;1.20;;
5787;SDS011;2920;48.158;12.254;2023-12-20T06:37:47;1.67;;;1.13;;
5787;SDS011;2920;48.158;12.254;2023-12-20T06:40:13;2.60;;;1.60;;
5787;SDS011;2920;48.158;12.254;2023-12-20T06:42:38;3.78;;;1.70;;
5787;SDS011;2920;48.158;12.254;2023-12-20T06:45:04;1.50;;;1.10;;
5787;SDS011;2920;48.158;12.254;2023-12-20T06:47:29;2.10;;;1.27;;
5787;SDS011;2920;48.158;12.254;2023-12-20T06:49:54;1.58;;;1.20;;
5787;SDS011;2920;48.158;12.254;2023-12-20T06:52:20;2.67;;;1.73;;
5787;SDS011;2920;48.158;12.254;2023-12-20T06:54:45;1.58;;;0.95;;
5787;SDS011;2920;48.158;12.254;2023-12-20T06:57:10;2.33;;;1.70;;
5787;SDS011;2920;48.158;12.254;2023-12-20T06:59:39;2.05;;;1.42;;
5787;SDS011;2920;48.158;12.254;2023-12-20T07:02:05;3.97;;;1.52;;
5787;SDS011;2920;48.158;12.254;2023-12-20T07:04:30;2.10;;;1.40;;
5787;SDS011;2920;48.158;12.254;2023-12-20T07:06:56;2.53;;;1.20;;
5787;SDS011;2920;48.158;12.254;2023-12-20T07:09:22;1.95;;;1.35;;
5787;SDS011;2920;48.158;12.254;2023-12-20T07:11:48;4.47;;;2.40;;
5787;SDS011;2920;48.158;12.254;2023-12-20T07:14:13;2.25;;;1.65;;
5787;SDS011;2920;48.158;12.254;2023-12-20T07:16:39;2.08;;;1.42;;
5787;SDS011;2920;48.158;12.254;2023-12-20T07:19:05;1.70;;;1.20;;
5787;SDS011;2920;48.158;12.254;2023-12-20T07:21:30;2.63;;;1.42;;
5787;SDS011;2920;48.158;12.254;2023-12-20T07:23:56;2.85;;;1.63;;
5787;SDS011;2920;48.158;12.254;2023-12-20T07:26:21;1.83;;;1.10;;
5787;SDS011;2920;48.158;12.254;2023-12-20T07:28:46;1.58;;;1.10;;
5787;SDS011;2920;48.158;12.254;2023-12-20T07:31:12;3.10;;;1.23;;
5787;SDS011;2920;48.158;12.254;2023-12-20T07:33:37;1.10;;;1.00;;
5787;SDS011;2920;48.158;12.254;2023-12-20T07:36:02;1.98;;;1.10;;
5787;SDS011;2920;48.158;12.254;2023-12-20T07:38:28;1.80;;;1.20;;
5787;SDS011;2920;48.158;12.254;2023-12-20T07:40:53;1.60;;;1.30;;
5787;SDS011;2920;48.158;12.254;2023-12-20T07:43:18;2.92;;;2.30;;
5787;SDS011;2920;48.158;12.254;2023-12-20T07:45:44;1.63;;;1.13;;
5787;SDS011;2920;48.158;12.254;2023-12-20T07:48:09;1.80;;;1.40;;
5787;SDS011;2920;48.158;12.254;2023-12-20T07:50:34;2.05;;;1.30;;
5787;SDS011;2920;48.158;12.254;2023-12-20T07:53:00;2.40;;;1.20;;
5787;SDS011;2920;48.158;12.254;2023-12-20T07:55:26;1.65;;;1.10;;
5787;SDS011;2920;48.158;12.254;2023-12-20T07:57:51;1.30;;;1.02;;
5787;SDS011;2920;48.158;12.254;2023-12-20T08:00:17;1.38;;;1.10;;
5787;SDS011;2920;48.158;12.254;2023-12-20T08:02:42;1.95;;;1.25;;
5787;SDS011;2920;48.158;12.254;2023-12-20T08:05:08;2.63;;;1.05;;
5787;SDS011;2920;48.158;12.254;2023-12-20T08:07:33;2.10;;;1.20;;
5787;SDS011;2920;48.158;12.254;2023-12-20T08:09:59;1.33;;;1.02;;
5787;SDS011;2920;48.158;12.254;2023-12-20T08:12:24;1.30;;;1.00;;
5787;SDS011;2920;48.158;12.254;2023-12-20T08:14:52;1.00;;;0.80;;
5787;SDS011;2920;48.158;12.254;2023-12-20T08:17:17;0.85;;;0.73;;
5787;SDS011;2920;48.158;12.254;2023-12-20T08:19:44;1.60;;;1.10;;
5787;SDS011;2920;48.158;12.254;2023-12-20T08:22:09;1.20;;;0.93;;
5787;SDS011;2920;48.158;12.254;2023-12-20T08:24:34;0.80;;;0.80;;
5787;SDS011;2920;48.158;12.254;2023-12-20T08:26:59;4.97;;;1.08;;
5787;SDS011;2920;48.158;12.254;2023-12-20T08:29:25;1.15;;;0.95;;
5787;SDS011;2920;48.158;12.254;2023-12-20T08:31:53;0.90;;;0.73;;
5787;SDS011;2920;48.158;12.254;2023-12-20T08:34:19;1.08;;;0.88;;
5787;SDS011;2920;48.158;12.254;2023-12-20T08:36:45;1.70;;;0.85;;
5787;SDS011;2920;48.158;12.254;2023-12-20T08:39:10;0.95;;;0.75;;
5787;SDS011;2920;48.158;12.254;2023-12-20T08:41:35;0.60;;;0.60;;
5787;SDS011;2920;48.158;12.254;2023-12-20T08:44:01;1.13;;;1.00;;
5787;SDS011;2920;48.158;12.254;2023-12-20T08:46:27;1.35;;;1.13;;
5787;SDS011;2920;48.158;12.254;2023-12-20T08:48:52;1.55;;;0.80;;
5787;SDS011;2920;48.158;12.254;2023-12-20T08:51:17;0.65;;;0.63;;
5787;SDS011;2920;48.158;12.254;2023-12-20T08:53:44;0.80;;;0.68;;
5787;SDS011;2920;48.158;12.254;2023-12-20T08:56:10;1.75;;;0.95;;
5787;SDS011;2920;48.158;12.254;2023-12-20T08:58:35;1.27;;;0.95;;
5787;SDS011;2920;48.158;12.254;2023-12-20T09:01:01;1.50;;;0.95;;
5787;SDS011;2920;48.158;12.254;2023-12-20T09:03:26;0.60;;;0.60;;
5787;SDS011;2920;48.158;12.254;2023-12-20T09:05:51;3.60;;;0.82;;
5787;SDS011;2920;48.158;12.254;2023-12-20T09:08:17;1.13;;;0.85;;
5787;SDS011;2920;48.158;12.254;2023-12-20T09:10:42;0.93;;;0.63;;
5787;SDS011;2920;48.158;12.254;2023-12-20T09:13:07;2.53;;;0.80;;
5787;SDS011;2920;48.158;12.254;2023-12-20T09:15:33;1.80;;;1.17;;
5787;SDS011;2920;48.158;12.254;2023-12-20T09:17:59;1.77;;;0.80;;
5787;SDS011;2920;48.158;12.254;2023-12-20T09:20:24;1.33;;;0.80;;
5787;SDS011;2920;48.158;12.254;2023-12-20T09:22:50;1.42;;;1.10;;
5787;SDS011;2920;48.158;12.254;2023-12-20T09:25:16;1.48;;;0.82;;
5787;SDS011;2920;48.158;12.254;2023-12-20T09:27:42;2.03;;;1.05;;
5787;SDS011;2920;48.158;12.254;2023-12-20T09:30:08;1.23;;;0.95;;
5787;SDS011;2920;48.158;12.254;2023-12-20T09:32:33;1.05;;;0.95;;
5787;SDS011;2920;48.158;12.254;2023-12-20T09:34:59;2.70;;;1.10;;
5787;SDS011;2920;48.158;12.254;2023-12-20T09:37:28;1.60;;;0.88;;
5787;SDS011;2920;48.158;12.254;2023-12-20T09:39:53;1.10;;;0.82;;
5787;SDS011;2920;48.158;12.254;2023-12-20T09:42:29;2.47;;;0.80;;
5787;SDS011;2920;48.158;12.254;2023-12-20T09:44:58;3.53;;;1.00;;
5787;SDS011;2920;48.158;12.254;2023-12-20T09:47:28;1.42;;;0.90;;
5787;SDS011;2920;48.158;12.254;2023-12-20T09:49:53;1.08;;;0.98;;
5787;SDS011;2920;48.158;12.254;2023-12-20T09:52:19;1.52;;;0.77;;
5787;SDS011;2920;48.158;12.254;2023-12-20T09:54:45;1.00;;;0.70;;
5787;SDS011;2920;48.158;12.254;2023-12-20T09:57:13;2.90;;;1.17;;
5787;SDS011;2920;48.158;12.254;2023-12-20T09:59:38;1.00;;;0.80;;
5787;SDS011;2920;48.158;12.254;2023-12-20T10:02:04;1.13;;;0.93;;
5787;SDS011;2920;48.158;12.254;2023-12-20T10:07:02;0.98;;;0.60;;
5787;SDS011;2920;48.158;12.254;2023-12-20T10:09:29;0.95;;;0.88;;
5787;SDS011;2920;48.158;12.254;2023-12-20T10:11:57;3.38;;;0.93;;
5787;SDS011;2920;48.158;12.254;2023-12-20T10:14:22;1.00;;;0.88;;
5787;SDS011;2920;48.158;12.254;2023-12-20T10:16:50;2.67;;;0.70;;
5787;SDS011;2920;48.158;12.254;2023-12-20T10:19:19;2.78;;;0.85;;
5787;SDS011;2920;48.158;12.254;2023-12-20T10:21:44;1.33;;;0.75;;
5787;SDS011;2920;48.158;12.254;2023-12-20T10:24:10;1.90;;;0.77;;
5787;SDS011;2920;48.158;12.254;2023-12-20T10:26:42;0.63;;;0.63;;
5787;SDS011;2920;48.158;12.254;2023-12-20T10:29:07;2.28;;;0.55;;
5787;SDS011;2920;48.158;12.254;2023-12-20T10:31:33;1.20;;;0.80;;
5787;SDS011;2920;48.158;12.254;2023-12-20T10:33:59;1.23;;;0.70;;
5787;SDS011;2920;48.158;12.254;2023-12-20T10:36:26;0.70;;;0.70;;
5787;SDS011;2920;48.158;12.254;2023-12-20T10:38:53;1.00;;;0.90;;
5787;SDS011;2920;48.158;12.254;2023-12-20T10:41:24;0.60;;;0.50;;
5787;SDS011;2920;48.158;12.254;2023-12-20T10:44:03;0.95;;;0.80;;
5787;SDS011;2920;48.158;12.254;2023-12-20T10:46:30;1.40;;;1.20;;
5787;SDS011;2920;48.158;12.254;2023-12-20T10:48:57;2.75;;;0.70;;
5787;SDS011;2920;48.158;12.254;2023-12-20T10:51:22;1.20;;;0.80;;
5787;SDS011;2920;48.158;12.254;2023-12-20T10:53:49;1.50;;;0.90;;
5787;SDS011;2920;48.158;12.254;2023-12-20T10:56:16;1.40;;;0.98;;
5787;SDS011;2920;48.158;12.254;2023-12-20T10:58:49;1.15;;;0.88;;
5787;SDS011;2920;48.158;12.254;2023-12-20T11:01:15;1.63;;;1.27;;
5787;SDS011;2920;48.158;12.254;2023-12-20T11:03:49;1.45;;;1.00;;
5787;SDS011;2920;48.158;12.254;2023-12-20T11:06:23;1.77;;;1.20;;
5787;SDS011;2920;48.158;12.254;2023-12-20T11:08:55;1.75;;;1.25;;
5787;SDS011;2920;48.158;12.254;2023-12-20T11:11:39;2.20;;;1.52;;
5787;SDS011;2920;48.158;12.254;2023-12-20T11:14:33;1.65;;;1.23;;
5787;SDS011;2920;48.158;12.254;2023-12-20T11:17:05;1.17;;;1.02;;
5787;SDS011;2920;48.158;12.254;2023-12-20T11:20:07;1.30;;;1.20;;
5787;SDS011;2920;48.158;12.254;2023-12-20T11:22:32;2.28;;;1.25;;
5787;SDS011;2920;48.158;12.254;2023-12-20T11:25:05;1.55;;;1.02;;
5787;SDS011;2920;48.158;12.254;2023-12-20T11:27:33;3.83;;;1.95;;
5787;SDS011;2920;48.158;12.254;2023-12-20T11:29:59;2.72;;;1.25;;
5787;SDS011;2920;48.158;12.254;2023-12-20T11:34:54;1.92;;;1.25;;
5787;SDS011;2920;48.158;12.254;2023-12-20T11:37:20;3.53;;;1.33;;
5787;SDS011;2920;48.158;12.254;2023-12-20T11:39:45;1.90;;;1.60;;
5787;SDS011;2920;48.158;12.254;2023-12-20T11:42:21;2.15;;;1.42;;
5787;SDS011;2920;48.158;12.254;2023-12-20T11:44:47;2.63;;;1.40;;
5787;SDS011;2920;48.158;12.254;2023-12-20T11:47:12;1.25;;;1.15;;
5787;SDS011;2920;48.158;12.254;2023-12-20T11:49:38;2.35;;;1.45;;
5787;SDS011;2920;48.158;12.254;2023-12-20T11:52:04;2.35;;;1.40;;
5787;SDS011;2920;48.158;12.254;2023-12-20T11:54:30;1.70;;;1.15;;
5787;SDS011;2920;48.158;12.254;2023-12-20T11:56:55;2.28;;;1.70;;
5787;SDS011;2920;48.158;12.254;2023-12-20T11:59:21;3.38;;;1.80;;
5787;SDS011;2920;48.158;12.254;2023-12-20T12:01:49;2.60;;;1.30;;
5787;SDS011;2920;48.158;12.254;2023-12-20T12:04:15;1.85;;;1.15;;
5787;SDS011;2920;48.158;12.254;2023-12-20T12:06:42;2.00;;;1.45;;
5787;SDS011;2920;48.158;12.254;2023-12-20T12:09:08;3.05;;;1.48;;
5787;SDS011;2920;48.158;12.254;2023-12-20T12:11:33;2.33;;;1.45;;
5787;SDS011;2920;48.158;12.254;2023-12-20T12:13:58;1.25;;;1.10;;
5787;SDS011;2920;48.158;12.254;2023-12-20T12:16:24;1.98;;;1.30;;
5787;SDS011;2920;48.158;12.254;2023-12-20T12:18:56;2.05;;;1.23;;
5787;SDS011;2920;48.158;12.254;2023-12-20T12:21:22;1.65;;;1.05;;
5787;SDS011;2920;48.158;12.254;2023-12-20T12:23:47;1.60;;;1.40;;
5787;SDS011;2920;48.158;12.254;2023-12-20T12:26:13;2.05;;;1.20;;
5787;SDS011;2920;48.158;12.254;2023-12-20T12:28:41;1.65;;;0.95;;
5787;SDS011;2920;48.158;12.254;2023-12-20T12:31:07;1.17;;;1.02;;
5787;SDS011;2920;48.158;12.254;2023-12-20T12:33:33;1.38;;;1.10;;
5787;SDS011;2920;48.158;12.254;2023-12-20T12:36:00;1.13;;;0.90;;
5787;SDS011;2920;48.158;12.254;2023-12-20T12:38:26;2.70;;;1.50;;
5787;SDS011;2920;48.158;12.254;2023-12-20T12:40:52;1.05;;;0.85;;
5787;SDS011;2920;48.158;12.254;2023-12-20T12:43:18;1.45;;;1.02;;
5787;SDS011;2920;48.158;12.254;2023-12-20T12:45:44;0.75;;;0.75;;
5787;SDS011;2920;48.158;12.254;2023-12-20T12:48:09;0.95;;;0.90;;
5787;SDS011;2920;48.158;12.254;2023-12-20T12:50:34;1.48;;;1.15;;
5787;SDS011;2920;48.158;12.254;2023-12-20T12:53:00;0.60;;;0.60;;
5787;SDS011;2920;48.158;12.254;2023-12-20T12:55:27;1.38;;;0.98;;
5787;SDS011;2920;48.158;12.254;2023-12-20T12:57:53;1.35;;;0.95;;
5787;SDS011;2920;48.158;12.254;2023-12-20T13:00:18;0.98;;;0.88;;
5787;SDS011;2920;48.158;12.254;2023-12-20T13:02:44;1.77;;;1.23;;
5787;SDS011;2920;48.158;12.254;2023-12-20T13:05:09;1.80;;;0.90;;
5787;SDS011;2920;48.158;12.254;2023-12-20T13:07:35;1.52;;;1.05;;
5787;SDS011;2920;48.158;12.254;2023-12-20T13:10:00;2.33;;;1.20;;
5787;SDS011;2920;48.158;12.254;2023-12-20T13:12:26;1.65;;;1.08;;
5787;SDS011;2920;48.158;12.254;2023-12-20T13:14:51;1.58;;;1.17;;
5787;SDS011;2920;48.158;12.254;2023-12-20T13:17:16;1.23;;;1.13;;
5787;SDS011;2920;48.158;12.254;2023-12-20T13:19:42;1.52;;;1.10;;
5787;SDS011;2920;48.158;12.254;2023-12-20T13:22:07;1.20;;;1.10;;
5787;SDS011;2920;48.158;12.254;2023-12-20T13:24:32;0.93;;;0.93;;
5787;SDS011;2920;48.158;12.254;2023-12-20T13:26:58;1.60;;;1.30;;
5787;SDS011;2920;48.158;12.254;2023-12-20T13:29:23;1.45;;;1.15;;
5787;SDS011;2920;48.158;12.254;2023-12-20T13:31:49;1.85;;;1.20;;
5787;SDS011;2920;48.158;12.254;2023-12-20T13:34:14;2.78;;;1.90;;
5787;SDS011;2920;48.158;12.254;2023-12-20T13:36:42;1.85;;;1.50;;
5787;SDS011;2920;48.158;12.254;2023-12-20T13:39:10;1.80;;;1.45;;
5787;SDS011;2920;48.158;12.254;2023-12-20T13:41:36;1.88;;;1.60;;
5787;SDS011;2920;48.158;12.254;2023-12-20T13:44:01;2.25;;;1.42;;
5787;SDS011;2920;48.158;12.254;2023-12-20T13:46:28;2.17;;;1.70;;
5787;SDS011;2920;48.158;12.254;2023-12-20T13:48:53;1.70;;;1.48;;
5787;SDS011;2920;48.158;12.254;2023-12-20T13:51:19;2.47;;;1.50;;
5787;SDS011;2920;48.158;12.254;2023-12-20T13:53:45;3.17;;;1.85;;
5787;SDS011;2920;48.158;12.254;2023-12-20T13:56:11;3.35;;;1.90;;
5787;SDS011;2920;48.158;12.254;2023-12-20T13:58:36;2.08;;;1.55;;
5787;SDS011;2920;48.158;12.254;2023-12-20T14:01:02;3.30;;;1.98;;
5787;SDS011;2920;48.158;12.254;2023-12-20T14:03:27;2.25;;;1.73;;
5787;SDS011;2920;48.158;12.254;2023-12-20T14:05:52;2.20;;;1.67;;
5787;SDS011;2920;48.158;12.254;2023-12-20T14:08:18;2.70;;;1.67;;
5787;SDS011;2920;48.158;12.254;2023-12-20T14:10:43;3.75;;;2.20;;
5787;SDS011;2920;48.158;12.254;2023-12-20T14:13:08;3.08;;;1.63;;
5787;SDS011;2920;48.158;12.254;2023-12-20T14:15:34;2.67;;;1.95;;
5787;SDS011;2920;48.158;12.254;2023-12-20T14:18:03;3.13;;;1.98;;
5787;SDS011;2920;48.158;12.254;2023-12-20T14:20:31;3.85;;;2.15;;
5787;SDS011;2920;48.158;12.254;2023-12-20T14:22:57;5.30;;;2.03;;
5787;SDS011;2920;48.158;12.254;2023-12-20T14:25:22;8.73;;;2.00;;
5787;SDS011;2920;48.158;12.254;2023-12-20T14:27:48;2.70;;;1.80;;
5787;SDS011;2920;48.158;12.254;2023-12-20T14:30:13;3.47;;;1.92;;
5787;SDS011;2920;48.158;12.254;2023-12-20T14:32:39;2.55;;;1.80;;
5787;SDS011;2920;48.158;12.254;2023-12-20T14:35:08;2.67;;;1.75;;
5787;SDS011;2920;48.158;12.254;2023-12-20T14:37:34;3.40;;;2.20;;
5787;SDS011;2920;48.158;12.254;2023-12-20T14:40:00;3.05;;;2.25;;
5787;SDS011;2920;48.158;12.254;2023-12-20T14:42:25;2.83;;;1.80;;
5787;SDS011;2920;48.158;12.254;2023-12-20T14:44:51;4.97;;;2.10;;
5787;SDS011;2920;48.158;12.254;2023-12-20T14:47:17;4.70;;;1.73;;
5787;SDS011;2920;48.158;12.254;2023-12-20T14:49:42;2.75;;;2.03;;
5787;SDS011;2920;48.158;12.254;2023-12-20T14:52:08;2.47;;;1.92;;
5787;SDS011;2920;48.158;12.254;2023-12-20T14:54:36;2.92;;;2.00;;
5787;SDS011;2920;48.158;12.254;2023-12-20T14:57:01;2.67;;;1.85;;
5787;SDS011;2920;48.158;12.254;2023-12-20T14:59:27;1.90;;;1.42;;